KHSV METAR and TAF | Updated Today

KHSV METAR

Huntsville International Carl T Jones Field

Observation time: 56 min. ago

KHSV 301653Z VRB03KT 10SM FEW200 15/03 A3017 RMK AO2 SLP215 T01500033

Need help? Read our tutorial on how to read METARs or read the parsed version below.

Huntsville International Carl T Jones Field (KHSV) METAR

  • Weather conditions on Tue, 30 Nov 2021 16:53:00 +0000 (56 min. ago):
  • Present conditions: Dry
  • Clouds: A few at 6096 meters
  • Visibility: 16093 meters
  • Wind: Variable at 3 knots
  • Temperature: 15 celsius
  • Dew point: 3 celsius
  • Pressure: 30.17 inHg
  • Remarks: AO2 SLP215 T01500033


Useful to know...

KHSV TAF

Huntsville International Carl T Jones Field

KHSV 301137Z 3012/0112 23006KT P6SM SKC
Observation time: 6:12 hr. ago
Need help? Read our tutorial on how to read TAFs or read the parsed version below.

Parsed version of TAF for Huntsville International Carl T Jones Field (KHSV)

  • From 30 November at 12:00 UTC, to day 01 of the month at 12:00 UTC
  • Clouds: No significant changes expected
  • Wind: 230 degrees at 6

Airports near KHSV

KDCU Weather
Region: Decatur

Pryor Field Regional Airport

Not found in our database
KFYM Weather
Region: Fayetteville

Fayetteville Municipal Airport

Not found in our database